sensor_id;sensor_type;location;lat;lon;timestamp;P1;durP1;ratioP1;P2;durP2;ratioP2
54979;SDS011;44101;50.462;30.432;2022-10-13T00:00:48;22.25;;;7.30;;
54979;SDS011;44101;50.462;30.432;2022-10-13T00:03:15;18.65;;;6.75;;
54979;SDS011;44101;50.462;30.432;2022-10-13T00:05:41;17.08;;;6.35;;
54979;SDS011;44101;50.462;30.432;2022-10-13T00:08:09;14.70;;;6.40;;
54979;SDS011;44101;50.462;30.432;2022-10-13T00:10:40;18.88;;;6.28;;
54979;SDS011;44101;50.462;30.432;2022-10-13T00:13:10;23.45;;;6.65;;
54979;SDS011;44101;50.462;30.432;2022-10-13T00:15:36;14.65;;;6.15;;
54979;SDS011;44101;50.462;30.432;2022-10-13T00:18:03;15.68;;;5.93;;
54979;SDS011;44101;50.462;30.432;2022-10-13T00:20:29;15.70;;;7.18;;
54979;SDS011;44101;50.462;30.432;2022-10-13T00:22:55;21.08;;;8.23;;
54979;SDS011;44101;50.462;30.432;2022-10-13T00:25:20;21.00;;;8.30;;
54979;SDS011;44101;50.462;30.432;2022-10-13T00:27:47;14.88;;;6.57;;
54979;SDS011;44101;50.462;30.432;2022-10-13T00:30:13;16.83;;;6.68;;
54979;SDS011;44101;50.462;30.432;2022-10-13T00:32:39;16.08;;;7.30;;
54979;SDS011;44101;50.462;30.432;2022-10-13T00:35:04;22.20;;;8.75;;
54979;SDS011;44101;50.462;30.432;2022-10-13T00:37:30;20.55;;;7.97;;
54979;SDS011;44101;50.462;30.432;2022-10-13T00:39:56;16.55;;;7.18;;
54979;SDS011;44101;50.462;30.432;2022-10-13T00:42:22;22.27;;;7.07;;
54979;SDS011;44101;50.462;30.432;2022-10-13T00:45:06;17.25;;;5.15;;
54979;SDS011;44101;50.462;30.432;2022-10-13T00:47:40;14.00;;;5.10;;
54979;SDS011;44101;50.462;30.432;2022-10-13T00:50:12;22.10;;;6.57;;
54979;SDS011;44101;50.462;30.432;2022-10-13T00:52:40;16.48;;;6.25;;
54979;SDS011;44101;50.462;30.432;2022-10-13T00:55:07;10.25;;;5.28;;
54979;SDS011;44101;50.462;30.432;2022-10-13T00:57:38;24.23;;;7.28;;
54979;SDS011;44101;50.462;30.432;2022-10-13T01:00:07;19.17;;;7.40;;
54979;SDS011;44101;50.462;30.432;2022-10-13T01:02:35;24.25;;;7.45;;
54979;SDS011;44101;50.462;30.432;2022-10-13T01:05:04;15.68;;;6.35;;
54979;SDS011;44101;50.462;30.432;2022-10-13T01:07:31;18.33;;;6.72;;
54979;SDS011;44101;50.462;30.432;2022-10-13T01:09:58;19.30;;;6.43;;
54979;SDS011;44101;50.462;30.432;2022-10-13T01:18:04;20.40;;;7.32;;
54979;SDS011;44101;50.462;30.432;2022-10-13T01:29:10;14.40;;;5.97;;
54979;SDS011;44101;50.462;30.432;2022-10-13T01:34:17;17.65;;;5.53;;
54979;SDS011;44101;50.462;30.432;2022-10-13T01:36:54;9.93;;;5.03;;
54979;SDS011;44101;50.462;30.432;2022-10-13T01:41:50;14.75;;;5.93;;
54979;SDS011;44101;50.462;30.432;2022-10-13T01:44:26;14.93;;;6.65;;
54979;SDS011;44101;50.462;30.432;2022-10-13T01:46:58;19.58;;;7.13;;
54979;SDS011;44101;50.462;30.432;2022-10-13T01:49:27;15.77;;;5.57;;
54979;SDS011;44101;50.462;30.432;2022-10-13T01:52:00;19.63;;;6.55;;
54979;SDS011;44101;50.462;30.432;2022-10-13T01:54:28;16.42;;;6.35;;
54979;SDS011;44101;50.462;30.432;2022-10-13T01:56:55;19.42;;;7.50;;
54979;SDS011;44101;50.462;30.432;2022-10-13T01:59:21;17.02;;;7.43;;
54979;SDS011;44101;50.462;30.432;2022-10-13T02:07:48;16.30;;;7.95;;
54979;SDS011;44101;50.462;30.432;2022-10-13T02:10:32;20.90;;;9.13;;
54979;SDS011;44101;50.462;30.432;2022-10-13T02:13:05;17.23;;;7.95;;
54979;SDS011;44101;50.462;30.432;2022-10-13T02:15:36;21.27;;;8.32;;
54979;SDS011;44101;50.462;30.432;2022-10-13T02:18:09;18.25;;;7.57;;
54979;SDS011;44101;50.462;30.432;2022-10-13T02:20:39;18.50;;;8.65;;
54979;SDS011;44101;50.462;30.432;2022-10-13T02:23:08;20.77;;;8.05;;
54979;SDS011;44101;50.462;30.432;2022-10-13T02:25:36;18.48;;;8.10;;
54979;SDS011;44101;50.462;30.432;2022-10-13T02:28:03;19.92;;;9.07;;
54979;SDS011;44101;50.462;30.432;2022-10-13T02:30:34;18.65;;;8.10;;
54979;SDS011;44101;50.462;30.432;2022-10-13T02:33:00;16.75;;;7.88;;
54979;SDS011;44101;50.462;30.432;2022-10-13T02:35:26;21.27;;;7.88;;
54979;SDS011;44101;50.462;30.432;2022-10-13T02:37:52;15.55;;;7.22;;
54979;SDS011;44101;50.462;30.432;2022-10-13T02:40:17;18.27;;;7.80;;
54979;SDS011;44101;50.462;30.432;2022-10-13T02:42:43;17.60;;;7.53;;
54979;SDS011;44101;50.462;30.432;2022-10-13T02:45:09;17.55;;;7.25;;
54979;SDS011;44101;50.462;30.432;2022-10-13T02:47:34;21.33;;;8.23;;
54979;SDS011;44101;50.462;30.432;2022-10-13T02:50:02;23.38;;;8.40;;
54979;SDS011;44101;50.462;30.432;2022-10-13T02:52:29;23.23;;;8.32;;
54979;SDS011;44101;50.462;30.432;2022-10-13T02:54:54;29.17;;;7.53;;
54979;SDS011;44101;50.462;30.432;2022-10-13T02:57:20;22.02;;;6.88;;
54979;SDS011;44101;50.462;30.432;2022-10-13T02:59:46;26.83;;;7.82;;
54979;SDS011;44101;50.462;30.432;2022-10-13T03:02:12;17.27;;;7.20;;
54979;SDS011;44101;50.462;30.432;2022-10-13T03:04:38;17.42;;;7.30;;
54979;SDS011;44101;50.462;30.432;2022-10-13T03:07:04;14.73;;;6.53;;
54979;SDS011;44101;50.462;30.432;2022-10-13T03:09:30;16.75;;;7.63;;
54979;SDS011;44101;50.462;30.432;2022-10-13T03:11:56;20.27;;;8.45;;
54979;SDS011;44101;50.462;30.432;2022-10-13T03:14:21;17.25;;;8.18;;
54979;SDS011;44101;50.462;30.432;2022-10-13T03:16:47;16.40;;;7.38;;
54979;SDS011;44101;50.462;30.432;2022-10-13T03:19:13;16.30;;;6.82;;
54979;SDS011;44101;50.462;30.432;2022-10-13T03:21:39;16.63;;;7.03;;
54979;SDS011;44101;50.462;30.432;2022-10-13T03:24:05;16.88;;;6.13;;
54979;SDS011;44101;50.462;30.432;2022-10-13T03:26:31;25.77;;;6.38;;
54979;SDS011;44101;50.462;30.432;2022-10-13T03:28:57;17.13;;;6.95;;
54979;SDS011;44101;50.462;30.432;2022-10-13T03:31:22;17.17;;;7.30;;
54979;SDS011;44101;50.462;30.432;2022-10-13T03:33:48;21.35;;;7.40;;
54979;SDS011;44101;50.462;30.432;2022-10-13T03:36:14;21.90;;;7.47;;
54979;SDS011;44101;50.462;30.432;2022-10-13T03:38:41;20.25;;;7.38;;
54979;SDS011;44101;50.462;30.432;2022-10-13T03:41:08;20.08;;;7.38;;
54979;SDS011;44101;50.462;30.432;2022-10-13T03:43:36;24.17;;;7.40;;
54979;SDS011;44101;50.462;30.432;2022-10-13T03:46:03;22.95;;;6.95;;
54979;SDS011;44101;50.462;30.432;2022-10-13T03:48:30;14.73;;;6.10;;
54979;SDS011;44101;50.462;30.432;2022-10-13T03:50:57;15.00;;;6.15;;
54979;SDS011;44101;50.462;30.432;2022-10-13T03:53:23;14.43;;;6.90;;
54979;SDS011;44101;50.462;30.432;2022-10-13T03:55:52;24.25;;;7.32;;
54979;SDS011;44101;50.462;30.432;2022-10-13T03:58:20;14.63;;;6.90;;
54979;SDS011;44101;50.462;30.432;2022-10-13T04:00:53;15.73;;;7.45;;
54979;SDS011;44101;50.462;30.432;2022-10-13T04:03:19;19.13;;;6.97;;
54979;SDS011;44101;50.462;30.432;2022-10-13T04:05:45;13.35;;;6.82;;
54979;SDS011;44101;50.462;30.432;2022-10-13T04:08:11;18.60;;;6.38;;
54979;SDS011;44101;50.462;30.432;2022-10-13T04:10:37;15.90;;;6.75;;
54979;SDS011;44101;50.462;30.432;2022-10-13T04:13:03;19.30;;;6.80;;
54979;SDS011;44101;50.462;30.432;2022-10-13T04:15:29;20.15;;;7.90;;
54979;SDS011;44101;50.462;30.432;2022-10-13T04:18:00;14.60;;;5.25;;
54979;SDS011;44101;50.462;30.432;2022-10-13T04:20:25;18.77;;;5.47;;
54979;SDS011;44101;50.462;30.432;2022-10-13T04:22:51;14.80;;;5.50;;
54979;SDS011;44101;50.462;30.432;2022-10-13T04:25:17;18.52;;;5.82;;
54979;SDS011;44101;50.462;30.432;2022-10-13T04:27:43;13.35;;;6.10;;
54979;SDS011;44101;50.462;30.432;2022-10-13T04:30:08;16.85;;;6.18;;
54979;SDS011;44101;50.462;30.432;2022-10-13T04:32:35;15.98;;;6.35;;
54979;SDS011;44101;50.462;30.432;2022-10-13T04:35:01;21.63;;;6.78;;
54979;SDS011;44101;50.462;30.432;2022-10-13T04:37:27;19.92;;;7.57;;
54979;SDS011;44101;50.462;30.432;2022-10-13T04:39:52;23.17;;;7.22;;
54979;SDS011;44101;50.462;30.432;2022-10-13T04:42:18;16.38;;;7.75;;
54979;SDS011;44101;50.462;30.432;2022-10-13T04:44:43;19.13;;;8.52;;
54979;SDS011;44101;50.462;30.432;2022-10-13T04:47:10;16.77;;;7.65;;
54979;SDS011;44101;50.462;30.432;2022-10-13T04:49:35;21.15;;;7.25;;
54979;SDS011;44101;50.462;30.432;2022-10-13T04:52:01;13.60;;;6.57;;
54979;SDS011;44101;50.462;30.432;2022-10-13T04:54:27;18.30;;;6.07;;
54979;SDS011;44101;50.462;30.432;2022-10-13T04:56:53;19.45;;;6.80;;
54979;SDS011;44101;50.462;30.432;2022-10-13T04:59:18;20.63;;;7.47;;
54979;SDS011;44101;50.462;30.432;2022-10-13T05:01:44;19.85;;;9.10;;
54979;SDS011;44101;50.462;30.432;2022-10-13T05:04:11;19.95;;;8.30;;
54979;SDS011;44101;50.462;30.432;2022-10-13T05:06:38;20.27;;;7.90;;
54979;SDS011;44101;50.462;30.432;2022-10-13T05:09:05;22.25;;;7.80;;
54979;SDS011;44101;50.462;30.432;2022-10-13T05:11:31;19.30;;;7.13;;
54979;SDS011;44101;50.462;30.432;2022-10-13T05:13:57;18.73;;;7.95;;
54979;SDS011;44101;50.462;30.432;2022-10-13T05:16:24;22.90;;;7.72;;
54979;SDS011;44101;50.462;30.432;2022-10-13T05:18:51;19.80;;;7.28;;
54979;SDS011;44101;50.462;30.432;2022-10-13T05:21:19;18.63;;;7.57;;
54979;SDS011;44101;50.462;30.432;2022-10-13T05:23:54;20.30;;;7.68;;
54979;SDS011;44101;50.462;30.432;2022-10-13T05:26:25;20.73;;;8.13;;
54979;SDS011;44101;50.462;30.432;2022-10-13T05:28:56;19.70;;;6.97;;
54979;SDS011;44101;50.462;30.432;2022-10-13T05:31:24;22.90;;;8.18;;
54979;SDS011;44101;50.462;30.432;2022-10-13T05:33:51;17.80;;;8.13;;
54979;SDS011;44101;50.462;30.432;2022-10-13T05:38:51;17.20;;;8.40;;
54979;SDS011;44101;50.462;30.432;2022-10-13T05:41:18;20.88;;;9.15;;
54979;SDS011;44101;50.462;30.432;2022-10-13T05:43:45;17.48;;;7.88;;
54979;SDS011;44101;50.462;30.432;2022-10-13T05:46:11;21.42;;;8.07;;
54979;SDS011;44101;50.462;30.432;2022-10-13T05:48:37;23.58;;;7.88;;
54979;SDS011;44101;50.462;30.432;2022-10-13T05:51:10;18.42;;;7.13;;
54979;SDS011;44101;50.462;30.432;2022-10-13T05:53:42;20.35;;;8.68;;
54979;SDS011;44101;50.462;30.432;2022-10-13T05:56:13;23.90;;;7.78;;
54979;SDS011;44101;50.462;30.432;2022-10-13T05:58:43;26.95;;;9.18;;
54979;SDS011;44101;50.462;30.432;2022-10-13T06:01:15;23.20;;;8.43;;
54979;SDS011;44101;50.462;30.432;2022-10-13T06:03:44;29.58;;;8.38;;
54979;SDS011;44101;50.462;30.432;2022-10-13T06:06:12;23.92;;;7.63;;
54979;SDS011;44101;50.462;30.432;2022-10-13T06:08:38;20.42;;;8.60;;
54979;SDS011;44101;50.462;30.432;2022-10-13T06:11:04;18.77;;;8.70;;
54979;SDS011;44101;50.462;30.432;2022-10-13T06:13:31;24.27;;;8.52;;
54979;SDS011;44101;50.462;30.432;2022-10-13T06:15:59;19.88;;;8.57;;
54979;SDS011;44101;50.462;30.432;2022-10-13T06:18:25;21.73;;;8.70;;
54979;SDS011;44101;50.462;30.432;2022-10-13T06:20:50;21.90;;;8.13;;
54979;SDS011;44101;50.462;30.432;2022-10-13T06:23:16;22.33;;;8.60;;
54979;SDS011;44101;50.462;30.432;2022-10-13T06:25:48;26.35;;;8.35;;
54979;SDS011;44101;50.462;30.432;2022-10-13T06:28:14;20.98;;;8.68;;
54979;SDS011;44101;50.462;30.432;2022-10-13T06:30:42;26.13;;;8.57;;
54979;SDS011;44101;50.462;30.432;2022-10-13T06:33:12;20.70;;;9.95;;
54979;SDS011;44101;50.462;30.432;2022-10-13T06:35:38;23.90;;;9.60;;
54979;SDS011;44101;50.462;30.432;2022-10-13T06:38:04;32.95;;;13.25;;
54979;SDS011;44101;50.462;30.432;2022-10-13T06:40:30;26.48;;;11.98;;
54979;SDS011;44101;50.462;30.432;2022-10-13T06:42:56;25.77;;;12.30;;
54979;SDS011;44101;50.462;30.432;2022-10-13T06:45:22;21.50;;;10.07;;
54979;SDS011;44101;50.462;30.432;2022-10-13T06:47:48;20.23;;;9.30;;
54979;SDS011;44101;50.462;30.432;2022-10-13T06:50:13;22.67;;;10.50;;
54979;SDS011;44101;50.462;30.432;2022-10-13T06:52:39;22.50;;;8.77;;
54979;SDS011;44101;50.462;30.432;2022-10-13T06:55:05;26.35;;;9.00;;
54979;SDS011;44101;50.462;30.432;2022-10-13T06:57:32;23.63;;;9.43;;
54979;SDS011;44101;50.462;30.432;2022-10-13T06:59:58;21.17;;;9.00;;
54979;SDS011;44101;50.462;30.432;2022-10-13T07:02:24;20.38;;;8.90;;
54979;SDS011;44101;50.462;30.432;2022-10-13T07:04:49;15.23;;;8.45;;
54979;SDS011;44101;50.462;30.432;2022-10-13T07:07:15;29.85;;;8.98;;
54979;SDS011;44101;50.462;30.432;2022-10-13T07:09:41;21.00;;;9.73;;
54979;SDS011;44101;50.462;30.432;2022-10-13T07:12:07;22.63;;;8.68;;
54979;SDS011;44101;50.462;30.432;2022-10-13T07:14:33;36.08;;;10.57;;
54979;SDS011;44101;50.462;30.432;2022-10-13T07:16:58;27.40;;;9.50;;
54979;SDS011;44101;50.462;30.432;2022-10-13T07:19:24;26.50;;;9.38;;
54979;SDS011;44101;50.462;30.432;2022-10-13T07:21:50;18.17;;;8.85;;
54979;SDS011;44101;50.462;30.432;2022-10-13T07:24:16;23.17;;;10.65;;
54979;SDS011;44101;50.462;30.432;2022-10-13T07:26:42;32.22;;;10.55;;
54979;SDS011;44101;50.462;30.432;2022-10-13T07:29:08;28.25;;;10.07;;
54979;SDS011;44101;50.462;30.432;2022-10-13T07:31:34;33.22;;;9.10;;
54979;SDS011;44101;50.462;30.432;2022-10-13T07:34:00;14.93;;;6.05;;
54979;SDS011;44101;50.462;30.432;2022-10-13T07:36:26;15.75;;;7.03;;
54979;SDS011;44101;50.462;30.432;2022-10-13T07:38:52;22.63;;;7.95;;
54979;SDS011;44101;50.462;30.432;2022-10-13T07:41:18;22.02;;;10.82;;
54979;SDS011;44101;50.462;30.432;2022-10-13T07:43:43;27.60;;;11.82;;
54979;SDS011;44101;50.462;30.432;2022-10-13T07:46:09;22.02;;;9.38;;
54979;SDS011;44101;50.462;30.432;2022-10-13T07:48:37;20.17;;;8.25;;
54979;SDS011;44101;50.462;30.432;2022-10-13T07:51:06;18.08;;;8.68;;
54979;SDS011;44101;50.462;30.432;2022-10-13T07:53:35;21.45;;;8.40;;
54979;SDS011;44101;50.462;30.432;2022-10-13T07:56:02;22.90;;;9.07;;
54979;SDS011;44101;50.462;30.432;2022-10-13T07:58:29;20.95;;;8.90;;
54979;SDS011;44101;50.462;30.432;2022-10-13T08:00:56;22.45;;;7.53;;
54979;SDS011;44101;50.462;30.432;2022-10-13T08:03:26;29.45;;;7.97;;
54979;SDS011;44101;50.462;30.432;2022-10-13T08:05:52;23.58;;;8.65;;
54979;SDS011;44101;50.462;30.432;2022-10-13T08:08:18;18.25;;;9.02;;
54979;SDS011;44101;50.462;30.432;2022-10-13T08:10:44;22.65;;;9.20;;
54979;SDS011;44101;50.462;30.432;2022-10-13T08:13:10;21.70;;;8.95;;
54979;SDS011;44101;50.462;30.432;2022-10-13T08:15:40;25.45;;;8.88;;
54979;SDS011;44101;50.462;30.432;2022-10-13T08:18:07;18.92;;;8.20;;
54979;SDS011;44101;50.462;30.432;2022-10-13T08:20:33;21.77;;;10.05;;
54979;SDS011;44101;50.462;30.432;2022-10-13T08:22:59;19.05;;;8.85;;
54979;SDS011;44101;50.462;30.432;2022-10-13T08:25:25;25.63;;;9.32;;
54979;SDS011;44101;50.462;30.432;2022-10-13T08:27:51;25.15;;;9.60;;
54979;SDS011;44101;50.462;30.432;2022-10-13T08:30:17;26.38;;;10.25;;
54979;SDS011;44101;50.462;30.432;2022-10-13T08:32:43;26.23;;;10.00;;
54979;SDS011;44101;50.462;30.432;2022-10-13T08:35:09;21.45;;;7.90;;
54979;SDS011;44101;50.462;30.432;2022-10-13T08:37:34;27.88;;;9.25;;
54979;SDS011;44101;50.462;30.432;2022-10-13T08:40:00;34.25;;;9.52;;
54979;SDS011;44101;50.462;30.432;2022-10-13T08:42:26;25.52;;;9.95;;
54979;SDS011;44101;50.462;30.432;2022-10-13T08:44:56;27.55;;;9.82;;
54979;SDS011;44101;50.462;30.432;2022-10-13T08:47:41;25.30;;;9.45;;
54979;SDS011;44101;50.462;30.432;2022-10-13T08:50:15;25.40;;;10.60;;
54979;SDS011;44101;50.462;30.432;2022-10-13T08:52:53;30.53;;;11.73;;
54979;SDS011;44101;50.462;30.432;2022-10-13T08:55:32;37.80;;;11.55;;
54979;SDS011;44101;50.462;30.432;2022-10-13T08:58:49;24.85;;;10.73;;
54979;SDS011;44101;50.462;30.432;2022-10-13T09:06:26;31.92;;;11.13;;
54979;SDS011;44101;50.462;30.432;2022-10-13T09:09:00;27.38;;;10.48;;
54979;SDS011;44101;50.462;30.432;2022-10-13T09:11:37;28.05;;;8.98;;
54979;SDS011;44101;50.462;30.432;2022-10-13T09:14:09;25.15;;;11.00;;
54979;SDS011;44101;50.462;30.432;2022-10-13T09:16:43;28.48;;;11.25;;
54979;SDS011;44101;50.462;30.432;2022-10-13T09:21:47;26.30;;;11.70;;
54979;SDS011;44101;50.462;30.432;2022-10-13T09:24:15;32.67;;;11.70;;
54979;SDS011;44101;50.462;30.432;2022-10-13T09:26:43;36.30;;;13.07;;
54979;SDS011;44101;50.462;30.432;2022-10-13T09:29:13;35.28;;;13.10;;
54979;SDS011;44101;50.462;30.432;2022-10-13T09:31:41;26.40;;;10.30;;
54979;SDS011;44101;50.462;30.432;2022-10-13T09:39:30;20.20;;;8.25;;
54979;SDS011;44101;50.462;30.432;2022-10-13T09:42:19;26.60;;;10.02;;
54979;SDS011;44101;50.462;30.432;2022-10-13T09:45:34;29.87;;;11.83;;
54979;SDS011;44101;50.462;30.432;2022-10-13T09:47:40;22.05;;;9.85;;
54979;SDS011;44101;50.462;30.432;2022-10-13T09:50:23;27.25;;;10.40;;
54979;SDS011;44101;50.462;30.432;2022-10-13T09:52:52;31.75;;;10.45;;
54979;SDS011;44101;50.462;30.432;2022-10-13T09:55:34;21.98;;;9.73;;
54979;SDS011;44101;50.462;30.432;2022-10-13T09:58:02;18.27;;;8.43;;
54979;SDS011;44101;50.462;30.432;2022-10-13T10:00:34;25.00;;;8.05;;
54979;SDS011;44101;50.462;30.432;2022-10-13T10:05:46;27.15;;;7.18;;
54979;SDS011;44101;50.462;30.432;2022-10-13T10:08:30;21.00;;;7.68;;
54979;SDS011;44101;50.462;30.432;2022-10-13T10:11:08;19.05;;;7.35;;
54979;SDS011;44101;50.462;30.432;2022-10-13T10:13:36;14.98;;;6.68;;
54979;SDS011;44101;50.462;30.432;2022-10-13T10:16:06;15.52;;;6.57;;
54979;SDS011;44101;50.462;30.432;2022-10-13T10:23:58;19.65;;;6.35;;
54979;SDS011;44101;50.462;30.432;2022-10-13T10:26:56;18.95;;;7.80;;
54979;SDS011;44101;50.462;30.432;2022-10-13T10:29:25;31.70;;;8.27;;
54979;SDS011;44101;50.462;30.432;2022-10-13T10:34:52;19.27;;;6.95;;
54979;SDS011;44101;50.462;30.432;2022-10-13T10:43:31;23.25;;;6.43;;
54979;SDS011;44101;50.462;30.432;2022-10-13T10:46:14;12.85;;;4.88;;
54979;SDS011;44101;50.462;30.432;2022-10-13T10:48:42;11.82;;;5.07;;
54979;SDS011;44101;50.462;30.432;2022-10-13T10:51:12;14.18;;;4.70;;
54979;SDS011;44101;50.462;30.432;2022-10-13T11:01:48;13.10;;;4.07;;
54979;SDS011;44101;50.462;30.432;2022-10-13T11:04:32;11.05;;;4.18;;
54979;SDS011;44101;50.462;30.432;2022-10-13T11:07:00;14.45;;;4.03;;
54979;SDS011;44101;50.462;30.432;2022-10-13T11:12:44;12.38;;;3.40;;
54979;SDS011;44101;50.462;30.432;2022-10-13T11:15:23;13.50;;;3.35;;
54979;SDS011;44101;50.462;30.432;2022-10-13T11:17:52;14.02;;;3.85;;
54979;SDS011;44101;50.462;30.432;2022-10-13T11:30:56;11.18;;;3.80;;
54979;SDS011;44101;50.462;30.432;2022-10-13T11:36:53;16.73;;;4.38;;
54979;SDS011;44101;50.462;30.432;2022-10-13T11:39:03;19.50;;;5.65;;
54979;SDS011;44101;50.462;30.432;2022-10-13T11:55:01;10.38;;;4.47;;
54979;SDS011;44101;50.462;30.432;2022-10-13T11:57:35;17.00;;;5.75;;
54979;SDS011;44101;50.462;30.432;2022-10-13T12:00:03;11.98;;;4.70;;
54979;SDS011;44101;50.462;30.432;2022-10-13T12:02:45;12.82;;;4.88;;
54979;SDS011;44101;50.462;30.432;2022-10-13T12:05:22;19.23;;;5.82;;
54979;SDS011;44101;50.462;30.432;2022-10-13T12:07:50;17.35;;;5.30;;
54979;SDS011;44101;50.462;30.432;2022-10-13T12:10:21;12.15;;;5.25;;
54979;SDS011;44101;50.462;30.432;2022-10-13T12:12:52;15.52;;;5.50;;
54979;SDS011;44101;50.462;30.432;2022-10-13T12:15:25;13.95;;;4.72;;
54979;SDS011;44101;50.462;30.432;2022-10-13T12:17:54;13.75;;;4.90;;
54979;SDS011;44101;50.462;30.432;2022-10-13T12:20:23;21.00;;;4.65;;
54979;SDS011;44101;50.462;30.432;2022-10-13T12:22:52;16.80;;;4.85;;
54979;SDS011;44101;50.462;30.432;2022-10-13T12:25:20;12.43;;;4.22;;
54979;SDS011;44101;50.462;30.432;2022-10-13T12:27:51;14.65;;;5.28;;
54979;SDS011;44101;50.462;30.432;2022-10-13T12:31:21;16.88;;;4.80;;
54979;SDS011;44101;50.462;30.432;2022-10-13T12:33:29;13.90;;;4.93;;
54979;SDS011;44101;50.462;30.432;2022-10-13T12:36:13;14.07;;;4.03;;
54979;SDS011;44101;50.462;30.432;2022-10-13T12:38:44;15.05;;;5.05;;
54979;SDS011;44101;50.462;30.432;2022-10-13T12:41:34;15.77;;;5.15;;
54979;SDS011;44101;50.462;30.432;2022-10-13T12:44:03;18.45;;;4.85;;
54979;SDS011;44101;50.462;30.432;2022-10-13T12:49:04;14.95;;;5.00;;
54979;SDS011;44101;50.462;30.432;2022-10-13T12:51:47;16.92;;;6.85;;
54979;SDS011;44101;50.462;30.432;2022-10-13T12:54:32;14.13;;;5.30;;
54979;SDS011;44101;50.462;30.432;2022-10-13T12:57:00;12.20;;;4.47;;
54979;SDS011;44101;50.462;30.432;2022-10-13T12:59:29;15.00;;;4.63;;
54979;SDS011;44101;50.462;30.432;2022-10-13T13:02:02;13.45;;;4.93;;
54979;SDS011;44101;50.462;30.432;2022-10-13T13:04:43;11.50;;;4.35;;
54979;SDS011;44101;50.462;30.432;2022-10-13T13:07:31;16.27;;;5.05;;
54979;SDS011;44101;50.462;30.432;2022-10-13T13:12:38;16.67;;;4.45;;
54979;SDS011;44101;50.462;30.432;2022-10-13T13:17:52;19.77;;;5.40;;
54979;SDS011;44101;50.462;30.432;2022-10-13T13:22:46;16.48;;;4.78;;
54979;SDS011;44101;50.462;30.432;2022-10-13T13:25:13;13.00;;;4.25;;
54979;SDS011;44101;50.462;30.432;2022-10-13T13:27:39;12.20;;;4.38;;
54979;SDS011;44101;50.462;30.432;2022-10-13T13:30:14;11.82;;;4.28;;
54979;SDS011;44101;50.462;30.432;2022-10-13T13:32:42;11.27;;;4.65;;
54979;SDS011;44101;50.462;30.432;2022-10-13T13:35:08;9.70;;;3.22;;
54979;SDS011;44101;50.462;30.432;2022-10-13T13:37:35;12.88;;;4.18;;
54979;SDS011;44101;50.462;30.432;2022-10-13T13:40:04;12.80;;;4.25;;
54979;SDS011;44101;50.462;30.432;2022-10-13T13:42:31;12.85;;;3.60;;
54979;SDS011;44101;50.462;30.432;2022-10-13T13:44:59;9.00;;;3.67;;
54979;SDS011;44101;50.462;30.432;2022-10-13T13:47:26;14.80;;;4.10;;
54979;SDS011;44101;50.462;30.432;2022-10-13T13:49:53;12.55;;;4.82;;
54979;SDS011;44101;50.462;30.432;2022-10-13T13:52:21;12.27;;;4.30;;
54979;SDS011;44101;50.462;30.432;2022-10-13T13:54:47;9.90;;;3.53;;
54979;SDS011;44101;50.462;30.432;2022-10-13T13:57:15;14.63;;;3.75;;
54979;SDS011;44101;50.462;30.432;2022-10-13T13:59:41;14.20;;;4.32;;
54979;SDS011;44101;50.462;30.432;2022-10-13T14:02:11;17.38;;;5.35;;
54979;SDS011;44101;50.462;30.432;2022-10-13T14:04:39;15.68;;;6.13;;
54979;SDS011;44101;50.462;30.432;2022-10-13T14:07:05;13.80;;;5.75;;
54979;SDS011;44101;50.462;30.432;2022-10-13T14:09:31;18.60;;;6.38;;
54979;SDS011;44101;50.462;30.432;2022-10-13T14:11:57;23.10;;;7.95;;
54979;SDS011;44101;50.462;30.432;2022-10-13T14:14:23;16.63;;;6.50;;
54979;SDS011;44101;50.462;30.432;2022-10-13T14:16:49;11.50;;;5.90;;
54979;SDS011;44101;50.462;30.432;2022-10-13T14:19:15;18.35;;;6.45;;
54979;SDS011;44101;50.462;30.432;2022-10-13T14:21:40;17.48;;;7.28;;
54979;SDS011;44101;50.462;30.432;2022-10-13T14:24:09;20.17;;;6.53;;
54979;SDS011;44101;50.462;30.432;2022-10-13T14:26:34;24.90;;;6.72;;
54979;SDS011;44101;50.462;30.432;2022-10-13T14:29:00;26.10;;;9.18;;
54979;SDS011;44101;50.462;30.432;2022-10-13T14:31:25;55.00;;;25.98;;
54979;SDS011;44101;50.462;30.432;2022-10-13T14:33:51;18.23;;;7.38;;
54979;SDS011;44101;50.462;30.432;2022-10-13T14:36:17;17.30;;;6.57;;
54979;SDS011;44101;50.462;30.432;2022-10-13T14:38:43;18.33;;;6.28;;
54979;SDS011;44101;50.462;30.432;2022-10-13T14:41:08;23.90;;;6.18;;
54979;SDS011;44101;50.462;30.432;2022-10-13T14:43:34;20.38;;;6.43;;
54979;SDS011;44101;50.462;30.432;2022-10-13T14:46:03;17.10;;;6.18;;
54979;SDS011;44101;50.462;30.432;2022-10-13T14:48:30;20.23;;;6.18;;
54979;SDS011;44101;50.462;30.432;2022-10-13T14:50:56;16.05;;;6.03;;
54979;SDS011;44101;50.462;30.432;2022-10-13T14:53:22;17.35;;;5.88;;
54979;SDS011;44101;50.462;30.432;2022-10-13T14:55:50;20.30;;;6.10;;
54979;SDS011;44101;50.462;30.432;2022-10-13T14:58:16;19.67;;;6.88;;
54979;SDS011;44101;50.462;30.432;2022-10-13T15:00:42;22.90;;;6.95;;
54979;SDS011;44101;50.462;30.432;2022-10-13T15:03:08;23.40;;;6.45;;
54979;SDS011;44101;50.462;30.432;2022-10-13T15:05:34;22.50;;;10.18;;
54979;SDS011;44101;50.462;30.432;2022-10-13T15:08:00;19.92;;;7.68;;
54979;SDS011;44101;50.462;30.432;2022-10-13T15:10:25;15.35;;;7.20;;
54979;SDS011;44101;50.462;30.432;2022-10-13T15:12:51;26.35;;;7.93;;
54979;SDS011;44101;50.462;30.432;2022-10-13T15:15:16;19.00;;;5.88;;
54979;SDS011;44101;50.462;30.432;2022-10-13T15:17:42;21.45;;;6.47;;
54979;SDS011;44101;50.462;30.432;2022-10-13T15:20:08;27.38;;;7.30;;
54979;SDS011;44101;50.462;30.432;2022-10-13T15:22:34;17.75;;;6.47;;
54979;SDS011;44101;50.462;30.432;2022-10-13T15:24:59;25.80;;;6.35;;
54979;SDS011;44101;50.462;30.432;2022-10-13T15:27:25;23.98;;;6.22;;
54979;SDS011;44101;50.462;30.432;2022-10-13T15:29:50;20.77;;;6.50;;
54979;SDS011;44101;50.462;30.432;2022-10-13T15:32:17;17.85;;;6.70;;
54979;SDS011;44101;50.462;30.432;2022-10-13T15:34:47;19.05;;;7.10;;
54979;SDS011;44101;50.462;30.432;2022-10-13T15:37:13;23.48;;;7.78;;
54979;SDS011;44101;50.462;30.432;2022-10-13T15:39:39;24.02;;;6.15;;
54979;SDS011;44101;50.462;30.432;2022-10-13T15:42:04;23.70;;;7.03;;
54979;SDS011;44101;50.462;30.432;2022-10-13T15:44:30;20.65;;;6.70;;
54979;SDS011;44101;50.462;30.432;2022-10-13T15:46:56;20.73;;;6.53;;
54979;SDS011;44101;50.462;30.432;2022-10-13T15:49:22;19.02;;;5.93;;
54979;SDS011;44101;50.462;30.432;2022-10-13T15:51:49;18.05;;;6.72;;
54979;SDS011;44101;50.462;30.432;2022-10-13T15:54:15;19.88;;;6.70;;
54979;SDS011;44101;50.462;30.432;2022-10-13T15:56:41;23.52;;;6.68;;
54979;SDS011;44101;50.462;30.432;2022-10-13T15:59:06;25.60;;;7.25;;
54979;SDS011;44101;50.462;30.432;2022-10-13T16:01:32;16.70;;;6.30;;
54979;SDS011;44101;50.462;30.432;2022-10-13T16:03:58;24.13;;;6.43;;
54979;SDS011;44101;50.462;30.432;2022-10-13T16:06:24;27.05;;;7.60;;
54979;SDS011;44101;50.462;30.432;2022-10-13T16:08:51;24.38;;;6.68;;
54979;SDS011;44101;50.462;30.432;2022-10-13T16:11:17;22.92;;;7.35;;
54979;SDS011;44101;50.462;30.432;2022-10-13T16:13:46;25.80;;;7.80;;
54979;SDS011;44101;50.462;30.432;2022-10-13T16:16:13;22.42;;;6.72;;